sensor_id;sensor_type;location;lat;lon;timestamp;P1;durP1;ratioP1;P2;durP2;ratioP2
7693;SDS011;3889;48.162;11.510;2022-12-07T00:01:06;15.00;;;13.65;;
7693;SDS011;3889;48.162;11.510;2022-12-07T00:03:36;16.48;;;14.98;;
7693;SDS011;3889;48.162;11.510;2022-12-07T00:06:06;15.68;;;14.27;;
7693;SDS011;3889;48.162;11.510;2022-12-07T00:08:35;15.63;;;14.23;;
7693;SDS011;3889;48.162;11.510;2022-12-07T00:11:03;16.23;;;14.77;;
7693;SDS011;3889;48.162;11.510;2022-12-07T00:13:34;15.68;;;14.18;;
7693;SDS011;3889;48.162;11.510;2022-12-07T00:16:03;15.67;;;14.27;;
7693;SDS011;3889;48.162;11.510;2022-12-07T00:18:32;14.50;;;13.23;;
7693;SDS011;3889;48.162;11.510;2022-12-07T00:21:01;14.85;;;13.45;;
7693;SDS011;3889;48.162;11.510;2022-12-07T00:23:29;14.00;;;12.80;;
7693;SDS011;3889;48.162;11.510;2022-12-07T00:26:02;14.70;;;13.40;;
7693;SDS011;3889;48.162;11.510;2022-12-07T00:28:31;14.53;;;13.13;;
7693;SDS011;3889;48.162;11.510;2022-12-07T00:31:02;14.10;;;12.80;;
7693;SDS011;3889;48.162;11.510;2022-12-07T00:33:31;14.43;;;13.13;;
7693;SDS011;3889;48.162;11.510;2022-12-07T00:35:59;13.82;;;12.63;;
7693;SDS011;3889;48.162;11.510;2022-12-07T00:38:28;14.27;;;12.98;;
7693;SDS011;3889;48.162;11.510;2022-12-07T00:40:57;13.63;;;12.43;;
7693;SDS011;3889;48.162;11.510;2022-12-07T00:43:26;13.43;;;12.13;;
7693;SDS011;3889;48.162;11.510;2022-12-07T00:45:56;14.38;;;13.07;;
7693;SDS011;3889;48.162;11.510;2022-12-07T00:48:24;13.98;;;12.57;;
7693;SDS011;3889;48.162;11.510;2022-12-07T00:50:52;14.00;;;12.80;;
7693;SDS011;3889;48.162;11.510;2022-12-07T00:53:20;14.60;;;13.20;;
7693;SDS011;3889;48.162;11.510;2022-12-07T00:55:49;14.75;;;13.38;;
7693;SDS011;3889;48.162;11.510;2022-12-07T00:58:18;14.35;;;13.07;;
7693;SDS011;3889;48.162;11.510;2022-12-07T01:00:46;13.48;;;12.30;;
7693;SDS011;3889;48.162;11.510;2022-12-07T01:03:16;14.13;;;12.93;;
7693;SDS011;3889;48.162;11.510;2022-12-07T01:05:51;14.32;;;13.02;;
7693;SDS011;3889;48.162;11.510;2022-12-07T01:08:19;13.43;;;12.30;;
7693;SDS011;3889;48.162;11.510;2022-12-07T01:10:48;13.90;;;12.60;;
7693;SDS011;3889;48.162;11.510;2022-12-07T01:13:16;13.68;;;12.48;;
7693;SDS011;3889;48.162;11.510;2022-12-07T01:15:44;13.93;;;12.73;;
7693;SDS011;3889;48.162;11.510;2022-12-07T01:18:12;12.93;;;11.77;;
7693;SDS011;3889;48.162;11.510;2022-12-07T01:20:41;13.68;;;12.48;;
7693;SDS011;3889;48.162;11.510;2022-12-07T01:23:08;13.55;;;12.35;;
7693;SDS011;3889;48.162;11.510;2022-12-07T01:25:37;13.50;;;12.30;;
7693;SDS011;3889;48.162;11.510;2022-12-07T01:28:05;12.95;;;11.77;;
7693;SDS011;3889;48.162;11.510;2022-12-07T01:30:33;14.20;;;12.90;;
7693;SDS011;3889;48.162;11.510;2022-12-07T01:33:01;13.70;;;12.50;;
7693;SDS011;3889;48.162;11.510;2022-12-07T01:35:29;13.90;;;12.60;;
7693;SDS011;3889;48.162;11.510;2022-12-07T01:38:01;14.43;;;13.13;;
7693;SDS011;3889;48.162;11.510;2022-12-07T01:40:29;13.38;;;12.18;;
7693;SDS011;3889;48.162;11.510;2022-12-07T01:42:58;13.48;;;12.23;;
7693;SDS011;3889;48.162;11.510;2022-12-07T01:48:12;14.10;;;12.85;;
7693;SDS011;3889;48.162;11.510;2022-12-07T01:50:44;13.05;;;11.85;;
7693;SDS011;3889;48.162;11.510;2022-12-07T01:53:17;13.45;;;12.25;;
7693;SDS011;3889;48.162;11.510;2022-12-07T01:55:45;12.68;;;11.57;;
7693;SDS011;3889;48.162;11.510;2022-12-07T01:58:16;13.30;;;12.10;;
7693;SDS011;3889;48.162;11.510;2022-12-07T02:00:44;13.30;;;12.00;;
7693;SDS011;3889;48.162;11.510;2022-12-07T02:03:13;13.27;;;12.07;;
7693;SDS011;3889;48.162;11.510;2022-12-07T02:05:45;12.30;;;11.20;;
7693;SDS011;3889;48.162;11.510;2022-12-07T02:08:16;12.23;;;11.13;;
7693;SDS011;3889;48.162;11.510;2022-12-07T02:10:44;13.35;;;12.05;;
7693;SDS011;3889;48.162;11.510;2022-12-07T02:13:13;12.98;;;11.77;;
7693;SDS011;3889;48.162;11.510;2022-12-07T02:15:47;13.23;;;12.05;;
7693;SDS011;3889;48.162;11.510;2022-12-07T02:18:30;13.18;;;12.00;;
7693;SDS011;3889;48.162;11.510;2022-12-07T02:21:07;13.40;;;12.20;;
7693;SDS011;3889;48.162;11.510;2022-12-07T02:23:49;13.32;;;12.13;;
7693;SDS011;3889;48.162;11.510;2022-12-07T02:26:38;13.35;;;12.15;;
7693;SDS011;3889;48.162;11.510;2022-12-07T02:29:31;13.95;;;12.65;;
7693;SDS011;3889;48.162;11.510;2022-12-07T02:32:03;14.00;;;12.70;;
7693;SDS011;3889;48.162;11.510;2022-12-07T02:34:38;13.38;;;12.15;;
7693;SDS011;3889;48.162;11.510;2022-12-07T02:37:14;14.10;;;12.80;;
7693;SDS011;3889;48.162;11.510;2022-12-07T02:39:53;13.05;;;11.85;;
7693;SDS011;3889;48.162;11.510;2022-12-07T02:42:26;13.82;;;12.63;;
7693;SDS011;3889;48.162;11.510;2022-12-07T02:45:00;12.98;;;11.88;;
7693;SDS011;3889;48.162;11.510;2022-12-07T02:47:29;13.35;;;12.15;;
7693;SDS011;3889;48.162;11.510;2022-12-07T02:49:59;13.27;;;12.07;;
7693;SDS011;3889;48.162;11.510;2022-12-07T02:52:27;12.88;;;11.77;;
7693;SDS011;3889;48.162;11.510;2022-12-07T02:54:55;13.10;;;11.95;;
7693;SDS011;3889;48.162;11.510;2022-12-07T02:57:27;12.68;;;11.57;;
7693;SDS011;3889;48.162;11.510;2022-12-07T03:00:05;12.93;;;11.82;;
7693;SDS011;3889;48.162;11.510;2022-12-07T03:02:36;13.25;;;12.05;;
7693;SDS011;3889;48.162;11.510;2022-12-07T03:05:15;12.63;;;11.52;;
7693;SDS011;3889;48.162;11.510;2022-12-07T03:07:59;13.18;;;11.98;;
7693;SDS011;3889;48.162;11.510;2022-12-07T03:10:35;13.57;;;12.38;;
7693;SDS011;3889;48.162;11.510;2022-12-07T03:13:15;12.93;;;11.73;;
7693;SDS011;3889;48.162;11.510;2022-12-07T03:15:51;13.25;;;12.05;;
7693;SDS011;3889;48.162;11.510;2022-12-07T03:18:25;13.07;;;11.85;;
7693;SDS011;3889;48.162;11.510;2022-12-07T03:20:58;14.38;;;13.07;;
7693;SDS011;3889;48.162;11.510;2022-12-07T03:23:32;13.05;;;11.88;;
7693;SDS011;3889;48.162;11.510;2022-12-07T03:26:02;14.35;;;13.15;;
7693;SDS011;3889;48.162;11.510;2022-12-07T03:28:34;14.38;;;12.98;;
7693;SDS011;3889;48.162;11.510;2022-12-07T03:31:08;15.23;;;13.82;;
7693;SDS011;3889;48.162;11.510;2022-12-07T03:33:42;15.20;;;13.80;;
7693;SDS011;3889;48.162;11.510;2022-12-07T03:36:17;15.10;;;13.70;;
7693;SDS011;3889;48.162;11.510;2022-12-07T03:38:50;14.05;;;12.75;;
7693;SDS011;3889;48.162;11.510;2022-12-07T03:41:25;15.65;;;14.25;;
7693;SDS011;3889;48.162;11.510;2022-12-07T03:43:56;14.25;;;12.95;;
7693;SDS011;3889;48.162;11.510;2022-12-07T03:46:27;14.57;;;13.18;;
7693;SDS011;3889;48.162;11.510;2022-12-07T03:49:04;15.15;;;13.80;;
7693;SDS011;3889;48.162;11.510;2022-12-07T03:51:37;14.77;;;13.48;;
7693;SDS011;3889;48.162;11.510;2022-12-07T03:54:11;14.05;;;12.75;;
7693;SDS011;3889;48.162;11.510;2022-12-07T03:56:43;15.15;;;13.75;;
7693;SDS011;3889;48.162;11.510;2022-12-07T03:59:13;15.18;;;13.80;;
7693;SDS011;3889;48.162;11.510;2022-12-07T04:01:44;14.82;;;13.43;;
7693;SDS011;3889;48.162;11.510;2022-12-07T04:04:18;14.98;;;13.57;;
7693;SDS011;3889;48.162;11.510;2022-12-07T04:06:46;14.98;;;13.68;;
7693;SDS011;3889;48.162;11.510;2022-12-07T04:09:13;15.07;;;13.73;;
7693;SDS011;3889;48.162;11.510;2022-12-07T04:11:41;15.23;;;13.90;;
7693;SDS011;3889;48.162;11.510;2022-12-07T04:14:09;14.80;;;13.40;;
7693;SDS011;3889;48.162;11.510;2022-12-07T04:16:48;14.77;;;13.37;;
7693;SDS011;3889;48.162;11.510;2022-12-07T04:19:18;14.95;;;13.60;;
7693;SDS011;3889;48.162;11.510;2022-12-07T04:21:48;15.27;;;13.88;;
7693;SDS011;3889;48.162;11.510;2022-12-07T04:24:16;14.85;;;13.55;;
7693;SDS011;3889;48.162;11.510;2022-12-07T04:26:44;14.83;;;13.43;;
7693;SDS011;3889;48.162;11.510;2022-12-07T04:29:13;14.85;;;13.55;;
7693;SDS011;3889;48.162;11.510;2022-12-07T04:31:42;16.55;;;15.05;;
7693;SDS011;3889;48.162;11.510;2022-12-07T04:34:11;15.77;;;14.38;;
7693;SDS011;3889;48.162;11.510;2022-12-07T04:36:41;15.90;;;14.40;;
7693;SDS011;3889;48.162;11.510;2022-12-07T04:39:13;16.02;;;14.52;;
7693;SDS011;3889;48.162;11.510;2022-12-07T04:41:46;15.45;;;14.15;;
7693;SDS011;3889;48.162;11.510;2022-12-07T04:44:14;15.63;;;14.13;;
7693;SDS011;3889;48.162;11.510;2022-12-07T04:46:43;16.10;;;14.60;;
7693;SDS011;3889;48.162;11.510;2022-12-07T04:49:13;15.10;;;13.70;;
7693;SDS011;3889;48.162;11.510;2022-12-07T04:51:42;15.55;;;14.05;;
7693;SDS011;3889;48.162;11.510;2022-12-07T04:54:10;15.20;;;13.73;;
7693;SDS011;3889;48.162;11.510;2022-12-07T04:56:38;15.93;;;14.43;;
7693;SDS011;3889;48.162;11.510;2022-12-07T04:59:06;15.27;;;13.87;;
7693;SDS011;3889;48.162;11.510;2022-12-07T05:01:34;15.50;;;14.10;;
7693;SDS011;3889;48.162;11.510;2022-12-07T05:04:02;15.75;;;14.25;;
7693;SDS011;3889;48.162;11.510;2022-12-07T05:06:32;15.50;;;14.10;;
7693;SDS011;3889;48.162;11.510;2022-12-07T05:09:00;15.48;;;13.98;;
7693;SDS011;3889;48.162;11.510;2022-12-07T05:11:28;15.82;;;14.43;;
7693;SDS011;3889;48.162;11.510;2022-12-07T05:14:06;16.10;;;14.70;;
7693;SDS011;3889;48.162;11.510;2022-12-07T05:16:37;16.17;;;14.77;;
7693;SDS011;3889;48.162;11.510;2022-12-07T05:19:05;16.00;;;14.50;;
7693;SDS011;3889;48.162;11.510;2022-12-07T05:21:35;16.17;;;14.77;;
7693;SDS011;3889;48.162;11.510;2022-12-07T05:24:04;16.47;;;14.93;;
7693;SDS011;3889;48.162;11.510;2022-12-07T05:26:32;16.02;;;14.52;;
7693;SDS011;3889;48.162;11.510;2022-12-07T05:29:00;15.93;;;14.53;;
7693;SDS011;3889;48.162;11.510;2022-12-07T05:31:28;16.00;;;14.52;;
7693;SDS011;3889;48.162;11.510;2022-12-07T05:33:56;17.10;;;15.60;;
7693;SDS011;3889;48.162;11.510;2022-12-07T05:36:24;16.17;;;14.68;;
7693;SDS011;3889;48.162;11.510;2022-12-07T05:38:56;17.15;;;15.57;;
7693;SDS011;3889;48.162;11.510;2022-12-07T05:41:24;17.60;;;16.00;;
7693;SDS011;3889;48.162;11.510;2022-12-07T05:44:10;17.98;;;16.33;;
7693;SDS011;3889;48.162;11.510;2022-12-07T05:46:38;18.10;;;16.50;;
7693;SDS011;3889;48.162;11.510;2022-12-07T05:49:06;17.20;;;15.60;;
7693;SDS011;3889;48.162;11.510;2022-12-07T05:51:33;16.98;;;15.48;;
7693;SDS011;3889;48.162;11.510;2022-12-07T05:54:03;16.55;;;15.05;;
7693;SDS011;3889;48.162;11.510;2022-12-07T05:56:30;16.92;;;15.40;;
7693;SDS011;3889;48.162;11.510;2022-12-07T05:58:58;17.38;;;15.77;;
7693;SDS011;3889;48.162;11.510;2022-12-07T06:01:43;17.10;;;15.50;;
7693;SDS011;3889;48.162;11.510;2022-12-07T06:04:11;17.52;;;15.93;;
7693;SDS011;3889;48.162;11.510;2022-12-07T06:06:39;17.80;;;16.20;;
7693;SDS011;3889;48.162;11.510;2022-12-07T06:09:08;17.60;;;16.00;;
7693;SDS011;3889;48.162;11.510;2022-12-07T06:11:37;16.95;;;15.35;;
7693;SDS011;3889;48.162;11.510;2022-12-07T06:14:22;17.40;;;15.75;;
7693;SDS011;3889;48.162;11.510;2022-12-07T06:16:50;17.50;;;16.00;;
7693;SDS011;3889;48.162;11.510;2022-12-07T06:19:18;17.02;;;15.52;;
7693;SDS011;3889;48.162;11.510;2022-12-07T06:21:46;17.60;;;16.03;;
7693;SDS011;3889;48.162;11.510;2022-12-07T06:24:16;18.70;;;17.00;;
7693;SDS011;3889;48.162;11.510;2022-12-07T06:26:44;18.00;;;16.30;;
7693;SDS011;3889;48.162;11.510;2022-12-07T06:29:12;18.52;;;16.92;;
7693;SDS011;3889;48.162;11.510;2022-12-07T06:31:41;19.27;;;17.43;;
7693;SDS011;3889;48.162;11.510;2022-12-07T06:34:10;17.70;;;16.10;;
7693;SDS011;3889;48.162;11.510;2022-12-07T06:36:39;18.07;;;16.47;;
7693;SDS011;3889;48.162;11.510;2022-12-07T06:39:08;17.77;;;16.17;;
7693;SDS011;3889;48.162;11.510;2022-12-07T06:41:37;17.92;;;16.33;;
7693;SDS011;3889;48.162;11.510;2022-12-07T06:44:06;18.38;;;16.67;;
7693;SDS011;3889;48.162;11.510;2022-12-07T06:46:34;18.48;;;16.77;;
7693;SDS011;3889;48.162;11.510;2022-12-07T06:49:02;18.17;;;16.47;;
7693;SDS011;3889;48.162;11.510;2022-12-07T06:51:30;18.15;;;16.55;;
7693;SDS011;3889;48.162;11.510;2022-12-07T06:53:58;17.80;;;16.20;;
7693;SDS011;3889;48.162;11.510;2022-12-07T06:56:26;17.38;;;15.77;;
7693;SDS011;3889;48.162;11.510;2022-12-07T06:58:56;18.48;;;16.88;;
7693;SDS011;3889;48.162;11.510;2022-12-07T07:01:24;17.13;;;15.63;;
7693;SDS011;3889;48.162;11.510;2022-12-07T07:03:52;17.77;;;16.10;;
7693;SDS011;3889;48.162;11.510;2022-12-07T07:06:19;17.15;;;15.57;;
7693;SDS011;3889;48.162;11.510;2022-12-07T07:08:47;17.50;;;16.00;;
7693;SDS011;3889;48.162;11.510;2022-12-07T07:11:15;16.98;;;15.48;;
7693;SDS011;3889;48.162;11.510;2022-12-07T07:13:43;18.27;;;16.63;;
7693;SDS011;3889;48.162;11.510;2022-12-07T07:16:13;17.07;;;15.47;;
7693;SDS011;3889;48.162;11.510;2022-12-07T07:18:41;18.08;;;16.38;;
7693;SDS011;3889;48.162;11.510;2022-12-07T07:21:09;18.70;;;17.02;;
7693;SDS011;3889;48.162;11.510;2022-12-07T07:23:37;17.48;;;15.98;;
7693;SDS011;3889;48.162;11.510;2022-12-07T07:26:05;18.98;;;17.08;;
7693;SDS011;3889;48.162;11.510;2022-12-07T07:28:32;19.05;;;17.35;;
7693;SDS011;3889;48.162;11.510;2022-12-07T07:31:00;18.73;;;17.13;;
7693;SDS011;3889;48.162;11.510;2022-12-07T07:33:29;19.13;;;17.23;;
7693;SDS011;3889;48.162;11.510;2022-12-07T07:35:57;19.95;;;18.10;;
7693;SDS011;3889;48.162;11.510;2022-12-07T07:38:25;19.38;;;17.58;;
7693;SDS011;3889;48.162;11.510;2022-12-07T07:40:53;19.55;;;17.75;;
7693;SDS011;3889;48.162;11.510;2022-12-07T07:43:20;19.92;;;18.00;;
7693;SDS011;3889;48.162;11.510;2022-12-07T07:45:48;19.83;;;18.02;;
7693;SDS011;3889;48.162;11.510;2022-12-07T07:48:17;19.52;;;17.73;;
7693;SDS011;3889;48.162;11.510;2022-12-07T07:50:46;19.42;;;17.73;;
7693;SDS011;3889;48.162;11.510;2022-12-07T07:53:14;17.70;;;16.20;;
7693;SDS011;3889;48.162;11.510;2022-12-07T07:55:42;18.85;;;17.05;;
7693;SDS011;3889;48.162;11.510;2022-12-07T07:58:17;19.42;;;17.63;;
7693;SDS011;3889;48.162;11.510;2022-12-07T08:00:45;18.55;;;16.88;;
7693;SDS011;3889;48.162;11.510;2022-12-07T08:03:13;18.30;;;16.70;;
7693;SDS011;3889;48.162;11.510;2022-12-07T08:05:41;18.50;;;16.90;;
7693;SDS011;3889;48.162;11.510;2022-12-07T08:08:10;19.43;;;17.73;;
7693;SDS011;3889;48.162;11.510;2022-12-07T08:10:38;18.95;;;17.27;;
7693;SDS011;3889;48.162;11.510;2022-12-07T08:13:06;19.45;;;17.75;;
7693;SDS011;3889;48.162;11.510;2022-12-07T08:15:41;19.02;;;17.17;;
7693;SDS011;3889;48.162;11.510;2022-12-07T08:18:10;18.77;;;17.08;;
7693;SDS011;3889;48.162;11.510;2022-12-07T08:20:39;20.13;;;18.33;;
7693;SDS011;3889;48.162;11.510;2022-12-07T08:23:08;20.25;;;18.35;;
7693;SDS011;3889;48.162;11.510;2022-12-07T08:25:37;19.90;;;18.10;;
7693;SDS011;3889;48.162;11.510;2022-12-07T08:28:06;19.38;;;17.58;;
7693;SDS011;3889;48.162;11.510;2022-12-07T08:30:34;19.42;;;17.70;;
7693;SDS011;3889;48.162;11.510;2022-12-07T08:33:02;20.42;;;18.52;;
7693;SDS011;3889;48.162;11.510;2022-12-07T08:35:32;19.48;;;17.67;;
7693;SDS011;3889;48.162;11.510;2022-12-07T08:38:00;20.13;;;18.33;;
7693;SDS011;3889;48.162;11.510;2022-12-07T08:40:29;20.07;;;18.23;;
7693;SDS011;3889;48.162;11.510;2022-12-07T08:42:58;19.55;;;17.75;;
7693;SDS011;3889;48.162;11.510;2022-12-07T08:45:26;20.75;;;18.85;;
7693;SDS011;3889;48.162;11.510;2022-12-07T08:47:59;20.30;;;18.50;;
7693;SDS011;3889;48.162;11.510;2022-12-07T08:50:30;20.58;;;18.67;;
7693;SDS011;3889;48.162;11.510;2022-12-07T08:52:59;20.17;;;18.35;;
7693;SDS011;3889;48.162;11.510;2022-12-07T08:55:28;19.95;;;18.15;;
7693;SDS011;3889;48.162;11.510;2022-12-07T08:57:56;18.80;;;17.02;;
7693;SDS011;3889;48.162;11.510;2022-12-07T09:00:26;18.42;;;16.83;;
7693;SDS011;3889;48.162;11.510;2022-12-07T09:02:54;19.60;;;17.73;;
7693;SDS011;3889;48.162;11.510;2022-12-07T09:05:22;19.02;;;17.33;;
7693;SDS011;3889;48.162;11.510;2022-12-07T09:07:51;19.05;;;17.35;;
7693;SDS011;3889;48.162;11.510;2022-12-07T09:10:22;18.17;;;16.48;;
7693;SDS011;3889;48.162;11.510;2022-12-07T09:12:50;17.67;;;16.08;;
7693;SDS011;3889;48.162;11.510;2022-12-07T09:15:19;17.83;;;16.23;;
7693;SDS011;3889;48.162;11.510;2022-12-07T09:17:47;18.15;;;16.55;;
7693;SDS011;3889;48.162;11.510;2022-12-07T09:20:15;17.50;;;15.93;;
7693;SDS011;3889;48.162;11.510;2022-12-07T09:22:42;15.98;;;14.57;;
7693;SDS011;3889;48.162;11.510;2022-12-07T09:25:10;16.70;;;15.25;;
7693;SDS011;3889;48.162;11.510;2022-12-07T09:27:38;16.25;;;14.85;;
7693;SDS011;3889;48.162;11.510;2022-12-07T09:30:06;15.98;;;14.52;;
7693;SDS011;3889;48.162;11.510;2022-12-07T09:32:36;16.30;;;14.80;;
7693;SDS011;3889;48.162;11.510;2022-12-07T09:35:04;15.82;;;14.43;;
7693;SDS011;3889;48.162;11.510;2022-12-07T09:37:33;15.88;;;14.27;;
7693;SDS011;3889;48.162;11.510;2022-12-07T09:40:02;14.97;;;13.63;;
7693;SDS011;3889;48.162;11.510;2022-12-07T09:42:34;14.85;;;13.55;;
7693;SDS011;3889;48.162;11.510;2022-12-07T09:45:06;15.07;;;13.68;;
7693;SDS011;3889;48.162;11.510;2022-12-07T09:47:40;15.60;;;14.15;;
7693;SDS011;3889;48.162;11.510;2022-12-07T09:50:12;14.30;;;13.00;;
7693;SDS011;3889;48.162;11.510;2022-12-07T09:52:43;15.15;;;13.75;;
7693;SDS011;3889;48.162;11.510;2022-12-07T09:55:14;14.98;;;13.57;;
7693;SDS011;3889;48.162;11.510;2022-12-07T09:57:43;15.50;;;14.10;;
7693;SDS011;3889;48.162;11.510;2022-12-07T10:00:12;15.20;;;13.80;;
7693;SDS011;3889;48.162;11.510;2022-12-07T10:02:44;15.07;;;13.70;;
7693;SDS011;3889;48.162;11.510;2022-12-07T10:05:15;15.88;;;14.38;;
7693;SDS011;3889;48.162;11.510;2022-12-07T10:07:50;17.00;;;15.50;;
7693;SDS011;3889;48.162;11.510;2022-12-07T10:10:19;16.17;;;14.68;;
7693;SDS011;3889;48.162;11.510;2022-12-07T10:12:52;16.70;;;15.20;;
7693;SDS011;3889;48.162;11.510;2022-12-07T10:15:40;16.45;;;14.93;;
7693;SDS011;3889;48.162;11.510;2022-12-07T10:18:19;16.23;;;14.73;;
7693;SDS011;3889;48.162;11.510;2022-12-07T10:20:48;15.38;;;13.98;;
7693;SDS011;3889;48.162;11.510;2022-12-07T10:23:16;15.68;;;14.05;;
7693;SDS011;3889;48.162;11.510;2022-12-07T10:25:45;16.60;;;15.00;;
7693;SDS011;3889;48.162;11.510;2022-12-07T10:28:14;14.98;;;13.68;;
7693;SDS011;3889;48.162;11.510;2022-12-07T10:30:51;14.57;;;13.23;;
7693;SDS011;3889;48.162;11.510;2022-12-07T10:33:29;13.80;;;12.60;;
7693;SDS011;3889;48.162;11.510;2022-12-07T10:36:15;13.73;;;12.52;;
7693;SDS011;3889;48.162;11.510;2022-12-07T10:38:45;11.88;;;10.80;;
7693;SDS011;3889;48.162;11.510;2022-12-07T10:41:14;12.48;;;11.27;;
7693;SDS011;3889;48.162;11.510;2022-12-07T10:43:49;11.70;;;10.57;;
7693;SDS011;3889;48.162;11.510;2022-12-07T10:46:29;12.00;;;10.90;;
7693;SDS011;3889;48.162;11.510;2022-12-07T10:49:32;11.38;;;10.38;;
7693;SDS011;3889;48.162;11.510;2022-12-07T10:52:29;11.07;;;10.07;;
7693;SDS011;3889;48.162;11.510;2022-12-07T10:55:08;10.65;;;9.73;;
7693;SDS011;3889;48.162;11.510;2022-12-07T10:57:47;9.95;;;9.05;;
7693;SDS011;3889;48.162;11.510;2022-12-07T11:00:29;10.90;;;9.90;;
7693;SDS011;3889;48.162;11.510;2022-12-07T11:03:06;10.68;;;9.75;;
7693;SDS011;3889;48.162;11.510;2022-12-07T11:05:54;11.02;;;10.02;;
7693;SDS011;3889;48.162;11.510;2022-12-07T11:08:35;11.25;;;10.25;;
7693;SDS011;3889;48.162;11.510;2022-12-07T11:11:13;11.48;;;10.38;;
7693;SDS011;3889;48.162;11.510;2022-12-07T11:13:44;10.80;;;9.80;;
7693;SDS011;3889;48.162;11.510;2022-12-07T11:16:21;10.83;;;9.83;;
7693;SDS011;3889;48.162;11.510;2022-12-07T11:19:05;10.05;;;9.15;;
7693;SDS011;3889;48.162;11.510;2022-12-07T11:21:56;10.05;;;9.05;;
7693;SDS011;3889;48.162;11.510;2022-12-07T11:24:26;9.05;;;8.25;;
7693;SDS011;3889;48.162;11.510;2022-12-07T11:27:11;9.63;;;8.73;;
7693;SDS011;3889;48.162;11.510;2022-12-07T11:29:58;11.17;;;10.07;;
7693;SDS011;3889;48.162;11.510;2022-12-07T11:32:44;9.23;;;8.43;;
7693;SDS011;3889;48.162;11.510;2022-12-07T11:35:22;8.40;;;7.70;;
7693;SDS011;3889;48.162;11.510;2022-12-07T11:38:00;8.60;;;7.80;;
7693;SDS011;3889;48.162;11.510;2022-12-07T11:40:36;8.32;;;7.55;;
7693;SDS011;3889;48.162;11.510;2022-12-07T11:43:09;7.85;;;7.18;;
7693;SDS011;3889;48.162;11.510;2022-12-07T11:45:43;8.43;;;7.63;;
7693;SDS011;3889;48.162;11.510;2022-12-07T11:48:14;7.30;;;6.60;;
7693;SDS011;3889;48.162;11.510;2022-12-07T11:50:48;8.07;;;7.38;;
7693;SDS011;3889;48.162;11.510;2022-12-07T11:53:22;8.57;;;7.88;;
7693;SDS011;3889;48.162;11.510;2022-12-07T11:55:54;8.07;;;7.37;;
7693;SDS011;3889;48.162;11.510;2022-12-07T11:58:35;8.65;;;7.85;;
7693;SDS011;3889;48.162;11.510;2022-12-07T12:01:21;8.38;;;7.60;;
7693;SDS011;3889;48.162;11.510;2022-12-07T12:04:01;8.50;;;7.70;;
7693;SDS011;3889;48.162;11.510;2022-12-07T12:06:40;7.97;;;7.28;;
7693;SDS011;3889;48.162;11.510;2022-12-07T12:09:11;9.50;;;8.60;;
7693;SDS011;3889;48.162;11.510;2022-12-07T12:12:05;8.90;;;8.10;;
7693;SDS011;3889;48.162;11.510;2022-12-07T12:15:06;9.77;;;8.73;;
7693;SDS011;3889;48.162;11.510;2022-12-07T12:17:56;9.38;;;8.45;;
7693;SDS011;3889;48.162;11.510;2022-12-07T12:20:52;8.73;;;7.93;;
7693;SDS011;3889;48.162;11.510;2022-12-07T12:23:27;8.90;;;8.07;;
7693;SDS011;3889;48.162;11.510;2022-12-07T12:26:05;9.45;;;8.50;;
7693;SDS011;3889;48.162;11.510;2022-12-07T12:28:40;9.57;;;8.68;;
7693;SDS011;3889;48.162;11.510;2022-12-07T12:31:16;10.85;;;9.85;;
7693;SDS011;3889;48.162;11.510;2022-12-07T12:34:01;11.20;;;10.10;;
7693;SDS011;3889;48.162;11.510;2022-12-07T12:36:44;11.02;;;9.95;;
7693;SDS011;3889;48.162;11.510;2022-12-07T12:39:13;11.50;;;10.40;;
7693;SDS011;3889;48.162;11.510;2022-12-07T12:41:52;11.38;;;10.27;;
7693;SDS011;3889;48.162;11.510;2022-12-07T12:47:41;10.87;;;9.87;;
7693;SDS011;3889;48.162;11.510;2022-12-07T12:50:20;12.25;;;11.05;;
7693;SDS011;3889;48.162;11.510;2022-12-07T12:52:54;11.13;;;10.02;;
7693;SDS011;3889;48.162;11.510;2022-12-07T12:58:38;11.02;;;10.02;;
7693;SDS011;3889;48.162;11.510;2022-12-07T13:04:17;10.27;;;9.27;;
7693;SDS011;3889;48.162;11.510;2022-12-07T13:07:13;10.93;;;9.93;;
7693;SDS011;3889;48.162;11.510;2022-12-07T13:09:56;11.18;;;9.98;;
7693;SDS011;3889;48.162;11.510;2022-12-07T13:12:24;11.07;;;10.07;;
7693;SDS011;3889;48.162;11.510;2022-12-07T13:14:55;11.27;;;10.27;;
7693;SDS011;3889;48.162;11.510;2022-12-07T13:23:31;11.05;;;10.05;;
7693;SDS011;3889;48.162;11.510;2022-12-07T13:29:05;11.95;;;10.75;;
7693;SDS011;3889;48.162;11.510;2022-12-07T13:31:39;11.60;;;10.45;;
7693;SDS011;3889;48.162;11.510;2022-12-07T13:34:27;12.20;;;11.07;;
7693;SDS011;3889;48.162;11.510;2022-12-07T13:36:57;11.07;;;9.98;;
7693;SDS011;3889;48.162;11.510;2022-12-07T13:39:27;11.70;;;10.50;;
7693;SDS011;3889;48.162;11.510;2022-12-07T13:41:55;11.35;;;10.25;;
7693;SDS011;3889;48.162;11.510;2022-12-07T13:44:25;11.30;;;10.20;;
7693;SDS011;3889;48.162;11.510;2022-12-07T13:46:59;11.43;;;10.27;;
7693;SDS011;3889;48.162;11.510;2022-12-07T13:49:36;10.93;;;9.82;;
7693;SDS011;3889;48.162;11.510;2022-12-07T13:52:13;10.88;;;9.88;;
7693;SDS011;3889;48.162;11.510;2022-12-07T13:54:43;11.23;;;10.13;;
7693;SDS011;3889;48.162;11.510;2022-12-07T13:57:12;12.02;;;10.85;;
7693;SDS011;3889;48.162;11.510;2022-12-07T13:59:40;11.63;;;10.53;;
7693;SDS011;3889;48.162;11.510;2022-12-07T14:02:21;11.00;;;9.90;;
7693;SDS011;3889;48.162;11.510;2022-12-07T14:05:06;11.45;;;10.40;;
7693;SDS011;3889;48.162;11.510;2022-12-07T14:07:35;10.27;;;9.27;;
7693;SDS011;3889;48.162;11.510;2022-12-07T14:10:22;11.00;;;9.95;;
7693;SDS011;3889;48.162;11.510;2022-12-07T14:12:51;10.60;;;9.50;;
7693;SDS011;3889;48.162;11.510;2022-12-07T14:15:20;9.65;;;8.75;;
7693;SDS011;3889;48.162;11.510;2022-12-07T14:17:53;8.80;;;7.90;;
7693;SDS011;3889;48.162;11.510;2022-12-07T14:20:28;7.90;;;7.20;;
7693;SDS011;3889;48.162;11.510;2022-12-07T14:22:57;7.88;;;7.10;;
7693;SDS011;3889;48.162;11.510;2022-12-07T14:25:44;8.00;;;6.60;;
7693;SDS011;3889;48.162;11.510;2022-12-07T14:28:24;7.07;;;6.40;;
7693;SDS011;3889;48.162;11.510;2022-12-07T14:30:54;8.07;;;6.88;;
7693;SDS011;3889;48.162;11.510;2022-12-07T14:33:23;8.63;;;6.93;;
7693;SDS011;3889;48.162;11.510;2022-12-07T14:35:51;7.20;;;6.47;;
7693;SDS011;3889;48.162;11.510;2022-12-07T14:38:21;7.75;;;6.60;;
7693;SDS011;3889;48.162;11.510;2022-12-07T14:40:50;8.38;;;6.78;;
7693;SDS011;3889;48.162;11.510;2022-12-07T14:43:19;21.25;;;12.00;;
7693;SDS011;3889;48.162;11.510;2022-12-07T14:45:47;18.10;;;11.77;;
7693;SDS011;3889;48.162;11.510;2022-12-07T14:48:15;22.65;;;13.45;;
7693;SDS011;3889;48.162;11.510;2022-12-07T14:51:04;23.90;;;14.60;;
7693;SDS011;3889;48.162;11.510;2022-12-07T14:53:52;21.77;;;14.50;;
7693;SDS011;3889;48.162;11.510;2022-12-07T14:56:22;19.13;;;12.90;;
7693;SDS011;3889;48.162;11.510;2022-12-07T14:58:51;16.30;;;11.80;;
7693;SDS011;3889;48.162;11.510;2022-12-07T15:01:18;15.02;;;11.65;;
7693;SDS011;3889;48.162;11.510;2022-12-07T15:03:46;14.43;;;10.27;;
7693;SDS011;3889;48.162;11.510;2022-12-07T15:06:16;12.32;;;9.98;;
7693;SDS011;3889;48.162;11.510;2022-12-07T15:08:45;11.50;;;9.55;;
7693;SDS011;3889;48.162;11.510;2022-12-07T15:11:13;10.30;;;9.20;;
7693;SDS011;3889;48.162;11.510;2022-12-07T15:13:42;10.18;;;9.07;;
7693;SDS011;3889;48.162;11.510;2022-12-07T15:16:27;9.07;;;8.10;;
7693;SDS011;3889;48.162;11.510;2022-12-07T15:19:16;8.07;;;7.27;;
7693;SDS011;3889;48.162;11.510;2022-12-07T15:21:55;8.45;;;7.55;;
7693;SDS011;3889;48.162;11.510;2022-12-07T15:24:23;10.63;;;9.52;;
7693;SDS011;3889;48.162;11.510;2022-12-07T15:26:51;10.90;;;9.90;;
7693;SDS011;3889;48.162;11.510;2022-12-07T15:29:19;9.75;;;8.77;;